Washington, United Kingdom
Current Conditions -  °F | °C
As of 9:50 PM on Thursday 27 Nov 2014 (Local Time) from EGNT Reporting Station
Broken Clouds Broken Clouds  
Wind Chill: 46°   Ceiling: 500
Heat Index: 48°   Visibility: 4mi
Dew Point: 48°   Wind: 5mph
Humidity: 100%   Direction: 160°SSE
Pressure: 29.59"   Gusts: NA
Location:  54.9°N, 1.53°W
Report Text: EGNT 272150Z 16004KT 100V190 6000 BKN005 09/09 Q1002
Loading
Personal Weather Stations






























Interactive Weather Map New forecast layout! Learn more

10-Day Weather Forecast

Advertisements
Track Severe Weather on mobile